createdAt,value
2023-01-26T00:06:03.808Z,100129.88
2023-01-26T00:16:06.005Z,100113.69
2023-01-26T00:26:07.899Z,100111.22
2023-01-26T00:36:09.534Z,100095.44
2023-01-26T00:46:11.136Z,100075.91
2023-01-26T00:56:14.726Z,100069.38
2023-01-26T01:06:16.109Z,100073.41
2023-01-26T01:16:17.922Z,100064.72
2023-01-26T01:26:19.385Z,100061.38
2023-01-26T01:36:20.896Z,100057.03
2023-01-26T01:46:32.014Z,100047.63
2023-01-26T01:56:33.423Z,100033.41
2023-01-26T02:06:47.343Z,100007.28
2023-01-26T02:16:48.743Z,100002.63
2023-01-26T02:26:50.131Z,99989.88
2023-01-26T02:36:58.876Z,99983.19
2023-01-26T02:47:00.267Z,99971.13
2023-01-26T02:57:01.739Z,99976.44
2023-01-26T03:07:03.156Z,99979.28
2023-01-26T03:17:04.549Z,99964.84
2023-01-26T03:27:25.201Z,99960.34
2023-01-26T03:37:26.586Z,99961.28
2023-01-26T03:47:46.797Z,99957.97
2023-01-26T03:57:48.472Z,99945.78
2023-01-26T04:08:08.507Z,99935.97
2023-01-26T04:18:28.649Z,99943.13
2023-01-26T04:28:30.149Z,99942.53
2023-01-26T04:38:31.686Z,99932.63
2023-01-26T04:48:33.242Z,99929.97
2023-01-26T04:58:34.747Z,99940.00
2023-01-26T05:08:36.646Z,99933.81
2023-01-26T05:18:38.031Z,99945.00
2023-01-26T05:28:39.497Z,99945.00
2023-01-26T05:38:40.872Z,99944.34
2023-01-26T05:48:42.393Z,99936.78
2023-01-26T05:58:43.918Z,99939.09
2023-01-26T06:08:45.457Z,99948.66
2023-01-26T06:18:50.122Z,99949.97
2023-01-26T06:28:52.402Z,99961.56
2023-01-26T06:38:56.409Z,99970.38
2023-01-26T06:48:58.110Z,99965.69
2023-01-26T06:58:59.492Z,99963.03
2023-01-26T07:09:00.986Z,99975.91
2023-01-26T07:19:02.368Z,99974.06
2023-01-26T07:29:03.756Z,99953.13
2023-01-26T07:39:08.391Z,99963.66
2023-01-26T07:49:11.739Z,99966.03
2023-01-26T07:59:13.281Z,99972.03
2023-01-26T08:09:14.682Z,99972.03
2023-01-26T08:19:16.195Z,99982.44
2023-01-26T08:29:18.201Z,99983.78
2023-01-26T08:39:19.784Z,99982.59
2023-01-26T08:49:21.222Z,99991.31
2023-01-26T08:59:22.610Z,100000.03
2023-01-26T09:09:24.023Z,100011.91
2023-01-26T09:19:25.394Z,100010.38
2023-01-26T09:29:26.806Z,100013.75
2023-01-26T09:39:28.801Z,100023.47
2023-01-26T09:50:08.275Z,100007.19
2023-01-26T10:00:20.499Z,100015.91
2023-01-26T10:10:26.667Z,100015.72
2023-01-26T10:20:35.835Z,100004.47
2023-01-26T10:30:37.272Z,100002.47
2023-01-26T10:40:45.320Z,99992.22
2023-01-26T10:50:47.371Z,99981.31
2023-01-26T11:00:48.868Z,99967.91
2023-01-26T11:10:53.424Z,99967.53
2023-01-26T11:21:06.031Z,99970.88
2023-01-26T11:31:32.889Z,99961.50
2023-01-26T11:41:53.034Z,99937.69
2023-01-26T11:52:00.263Z,99940.19
2023-01-26T12:02:15.368Z,99931.97
2023-01-26T12:12:50.281Z,99934.47
2023-01-26T12:23:02.993Z,99929.28
2023-01-26T12:33:04.435Z,99909.31
2023-01-26T12:43:30.982Z,99892.22
2023-01-26T12:53:58.974Z,99888.84
2023-01-26T13:04:04.422Z,99887.66
2023-01-26T13:14:27.746Z,99869.88
2023-01-26T13:24:29.107Z,99874.53
2023-01-26T13:34:41.867Z,99865.03
2023-01-26T13:44:46.195Z,99872.81
2023-01-26T13:54:47.977Z,99880.56
2023-01-26T14:04:51.438Z,99876.75
2023-01-26T14:15:02.350Z,99876.31
2023-01-26T14:25:07.664Z,99881.84
2023-01-26T14:35:22.466Z,99884.56
2023-01-26T14:45:33.919Z,99880.41
2023-01-26T14:55:36.188Z,99883.44
2023-01-26T15:05:38.284Z,99883.47
2023-01-26T15:16:07.453Z,99893.00
2023-01-26T15:26:27.399Z,99899.19
2023-01-26T15:36:51.401Z,99892.50
2023-01-26T15:46:52.918Z,99894.47
2023-01-26T15:56:54.344Z,99898.50
2023-01-26T16:06:55.730Z,99891.97
2023-01-26T16:16:57.144Z,99893.47
2023-01-26T16:26:58.532Z,99890.28
2023-01-26T16:36:59.958Z,99883.91
2023-01-26T16:47:01.363Z,99890.94
2023-01-26T16:57:02.939Z,99905.81
2023-01-26T17:07:04.353Z,99898.31
2023-01-26T17:17:05.745Z,99909.69
2023-01-26T17:27:07.128Z,99914.59
2023-01-26T17:37:08.970Z,99915.91
2023-01-26T17:47:10.402Z,99932.47
2023-01-26T17:57:11.973Z,99924.09
2023-01-26T18:07:13.355Z,99936.94
2023-01-26T18:17:14.743Z,99917.53
2023-01-26T18:27:16.177Z,99918.34
2023-01-26T18:37:17.562Z,99931.06
2023-01-26T18:47:19.095Z,99919.97
2023-01-26T18:57:20.566Z,99924.03
2023-01-26T19:07:21.949Z,99920.72
2023-01-26T19:17:23.477Z,99910.84
2023-01-26T19:27:24.910Z,99920.41
2023-01-26T19:37:26.287Z,99916.91
2023-01-26T19:47:27.701Z,99915.09
2023-01-26T19:57:31.696Z,99904.53
2023-01-26T20:07:33.142Z,99910.41
2023-01-26T20:17:34.670Z,99909.06
2023-01-26T20:27:36.236Z,99909.53
2023-01-26T20:37:37.673Z,99908.84
2023-01-26T20:47:40.269Z,99892.78
2023-01-26T20:57:41.662Z,99897.53
2023-01-26T21:07:43.080Z,99892.16
2023-01-26T21:17:44.501Z,99890.09
2023-01-26T21:27:45.899Z,99876.84
2023-01-26T21:37:47.285Z,99874.16
2023-01-26T21:48:11.569Z,99865.59
2023-01-26T21:58:32.665Z,99863.72
2023-01-26T22:08:34.597Z,99862.19
2023-01-26T22:18:36.280Z,99854.66
2023-01-26T22:28:37.696Z,99865.34
2023-01-26T22:38:39.247Z,99845.38
2023-01-26T22:48:40.616Z,99848.94
2023-01-26T22:58:56.592Z,99852.19
2023-01-26T23:09:00.895Z,99848.03
2023-01-26T23:19:02.276Z,99854.94
2023-01-26T23:29:03.674Z,99852.78
2023-01-26T23:39:05.058Z,99848.47
2023-01-26T23:49:06.811Z,99843.13
2023-01-26T23:59:08.220Z,99842.81
